sensor_id;sensor_type;location;lat;lon;timestamp;P1;durP1;ratioP1;P2;durP2;ratioP2
6497;SDS011;3282;48.358;10.958;2022-08-02T00:01:17;5.35;;;1.80;;
6497;SDS011;3282;48.358;10.958;2022-08-02T00:03:43;4.75;;;1.90;;
6497;SDS011;3282;48.358;10.958;2022-08-02T00:06:10;3.05;;;1.60;;
6497;SDS011;3282;48.358;10.958;2022-08-02T00:08:37;4.10;;;1.77;;
6497;SDS011;3282;48.358;10.958;2022-08-02T00:11:04;3.20;;;1.75;;
6497;SDS011;3282;48.358;10.958;2022-08-02T00:13:31;2.70;;;1.50;;
6497;SDS011;3282;48.358;10.958;2022-08-02T00:15:57;4.13;;;2.03;;
6497;SDS011;3282;48.358;10.958;2022-08-02T00:18:24;3.15;;;1.70;;
6497;SDS011;3282;48.358;10.958;2022-08-02T00:20:51;3.72;;;1.70;;
6497;SDS011;3282;48.358;10.958;2022-08-02T00:23:17;3.55;;;1.80;;
6497;SDS011;3282;48.358;10.958;2022-08-02T00:25:44;3.38;;;1.80;;
6497;SDS011;3282;48.358;10.958;2022-08-02T00:28:21;4.22;;;1.80;;
6497;SDS011;3282;48.358;10.958;2022-08-02T00:30:54;3.50;;;1.90;;
6497;SDS011;3282;48.358;10.958;2022-08-02T00:33:21;5.60;;;1.98;;
6497;SDS011;3282;48.358;10.958;2022-08-02T00:36:08;3.10;;;1.60;;
6497;SDS011;3282;48.358;10.958;2022-08-02T00:38:34;3.72;;;1.75;;
6497;SDS011;3282;48.358;10.958;2022-08-02T00:41:01;5.05;;;1.70;;
6497;SDS011;3282;48.358;10.958;2022-08-02T00:43:27;3.83;;;1.80;;
6497;SDS011;3282;48.358;10.958;2022-08-02T00:45:54;3.40;;;2.00;;
6497;SDS011;3282;48.358;10.958;2022-08-02T00:48:29;3.30;;;1.92;;
6497;SDS011;3282;48.358;10.958;2022-08-02T00:50:55;3.42;;;1.80;;
6497;SDS011;3282;48.358;10.958;2022-08-02T00:53:22;4.57;;;1.80;;
6497;SDS011;3282;48.358;10.958;2022-08-02T00:55:48;2.90;;;1.80;;
6497;SDS011;3282;48.358;10.958;2022-08-02T00:58:15;3.55;;;2.00;;
6497;SDS011;3282;48.358;10.958;2022-08-02T01:00:42;4.45;;;1.98;;
6497;SDS011;3282;48.358;10.958;2022-08-02T01:03:08;4.60;;;2.15;;
6497;SDS011;3282;48.358;10.958;2022-08-02T01:05:35;5.50;;;2.05;;
6497;SDS011;3282;48.358;10.958;2022-08-02T01:08:21;3.65;;;2.22;;
6497;SDS011;3282;48.358;10.958;2022-08-02T01:10:54;4.15;;;2.15;;
6497;SDS011;3282;48.358;10.958;2022-08-02T01:13:22;3.90;;;2.10;;
6497;SDS011;3282;48.358;10.958;2022-08-02T01:18:37;4.28;;;2.03;;
6497;SDS011;3282;48.358;10.958;2022-08-02T01:21:22;3.75;;;2.20;;
6497;SDS011;3282;48.358;10.958;2022-08-02T01:24:15;3.95;;;2.20;;
6497;SDS011;3282;48.358;10.958;2022-08-02T01:26:49;5.50;;;2.08;;
6497;SDS011;3282;48.358;10.958;2022-08-02T01:29:21;3.03;;;2.17;;
6497;SDS011;3282;48.358;10.958;2022-08-02T01:32:05;3.60;;;2.00;;
6497;SDS011;3282;48.358;10.958;2022-08-02T01:35:10;8.10;;;2.10;;
6497;SDS011;3282;48.358;10.958;2022-08-02T01:37:37;3.97;;;2.00;;
6497;SDS011;3282;48.358;10.958;2022-08-02T01:40:32;3.72;;;2.28;;
6497;SDS011;3282;48.358;10.958;2022-08-02T01:43:01;5.18;;;2.60;;
6497;SDS011;3282;48.358;10.958;2022-08-02T01:45:31;5.25;;;2.40;;
6497;SDS011;3282;48.358;10.958;2022-08-02T01:47:59;4.45;;;2.55;;
6497;SDS011;3282;48.358;10.958;2022-08-02T01:50:28;4.75;;;2.10;;
6497;SDS011;3282;48.358;10.958;2022-08-02T01:52:59;3.42;;;2.30;;
6497;SDS011;3282;48.358;10.958;2022-08-02T01:55:33;3.88;;;2.20;;
6497;SDS011;3282;48.358;10.958;2022-08-02T01:58:24;5.20;;;2.60;;
6497;SDS011;3282;48.358;10.958;2022-08-02T02:00:54;4.80;;;2.50;;
6497;SDS011;3282;48.358;10.958;2022-08-02T02:03:23;3.90;;;2.58;;
6497;SDS011;3282;48.358;10.958;2022-08-02T02:05:52;3.95;;;2.25;;
6497;SDS011;3282;48.358;10.958;2022-08-02T02:08:31;3.95;;;2.20;;
6497;SDS011;3282;48.358;10.958;2022-08-02T02:11:01;5.03;;;2.42;;
6497;SDS011;3282;48.358;10.958;2022-08-02T02:13:49;4.65;;;2.63;;
6497;SDS011;3282;48.358;10.958;2022-08-02T02:16:15;4.75;;;2.75;;
6497;SDS011;3282;48.358;10.958;2022-08-02T02:18:44;5.32;;;2.35;;
6497;SDS011;3282;48.358;10.958;2022-08-02T02:21:13;4.32;;;2.88;;
6497;SDS011;3282;48.358;10.958;2022-08-02T02:23:40;3.72;;;2.47;;
6497;SDS011;3282;48.358;10.958;2022-08-02T02:26:09;5.50;;;2.83;;
6497;SDS011;3282;48.358;10.958;2022-08-02T02:28:39;5.78;;;2.80;;
6497;SDS011;3282;48.358;10.958;2022-08-02T02:31:08;4.75;;;2.55;;
6497;SDS011;3282;48.358;10.958;2022-08-02T02:33:39;7.78;;;2.78;;
6497;SDS011;3282;48.358;10.958;2022-08-02T02:36:12;5.53;;;2.90;;
6497;SDS011;3282;48.358;10.958;2022-08-02T02:38:41;4.60;;;2.70;;
6497;SDS011;3282;48.358;10.958;2022-08-02T02:41:10;4.60;;;2.65;;
6497;SDS011;3282;48.358;10.958;2022-08-02T02:43:38;5.35;;;2.60;;
6497;SDS011;3282;48.358;10.958;2022-08-02T02:46:06;4.22;;;2.67;;
6497;SDS011;3282;48.358;10.958;2022-08-02T02:48:35;5.10;;;2.63;;
6497;SDS011;3282;48.358;10.958;2022-08-02T02:51:03;5.70;;;2.90;;
6497;SDS011;3282;48.358;10.958;2022-08-02T02:53:34;4.60;;;2.50;;
6497;SDS011;3282;48.358;10.958;2022-08-02T02:56:21;5.32;;;3.00;;
6497;SDS011;3282;48.358;10.958;2022-08-02T02:58:49;4.20;;;2.50;;
6497;SDS011;3282;48.358;10.958;2022-08-02T03:01:17;5.28;;;2.50;;
6497;SDS011;3282;48.358;10.958;2022-08-02T03:04:13;3.80;;;2.28;;
6497;SDS011;3282;48.358;10.958;2022-08-02T03:06:41;5.65;;;2.70;;
6497;SDS011;3282;48.358;10.958;2022-08-02T03:09:08;4.32;;;2.45;;
6497;SDS011;3282;48.358;10.958;2022-08-02T03:11:36;6.07;;;2.97;;
6497;SDS011;3282;48.358;10.958;2022-08-02T03:14:06;5.97;;;3.05;;
6497;SDS011;3282;48.358;10.958;2022-08-02T03:16:45;7.70;;;2.97;;
6497;SDS011;3282;48.358;10.958;2022-08-02T03:19:16;5.32;;;3.20;;
6497;SDS011;3282;48.358;10.958;2022-08-02T03:21:45;5.45;;;3.45;;
6497;SDS011;3282;48.358;10.958;2022-08-02T03:24:22;5.60;;;3.33;;
6497;SDS011;3282;48.358;10.958;2022-08-02T03:26:53;5.97;;;3.30;;
6497;SDS011;3282;48.358;10.958;2022-08-02T03:29:20;5.95;;;3.60;;
6497;SDS011;3282;48.358;10.958;2022-08-02T03:31:47;6.72;;;3.00;;
6497;SDS011;3282;48.358;10.958;2022-08-02T03:34:14;6.10;;;3.65;;
6497;SDS011;3282;48.358;10.958;2022-08-02T03:36:41;5.03;;;3.10;;
6497;SDS011;3282;48.358;10.958;2022-08-02T03:39:08;6.57;;;3.10;;
6497;SDS011;3282;48.358;10.958;2022-08-02T03:41:37;5.05;;;3.00;;
6497;SDS011;3282;48.358;10.958;2022-08-02T03:44:05;5.55;;;3.30;;
6497;SDS011;3282;48.358;10.958;2022-08-02T03:46:33;9.23;;;3.55;;
6497;SDS011;3282;48.358;10.958;2022-08-02T03:49:05;5.18;;;3.03;;
6497;SDS011;3282;48.358;10.958;2022-08-02T03:51:33;4.72;;;3.30;;
6497;SDS011;3282;48.358;10.958;2022-08-02T03:54:01;7.18;;;3.50;;
6497;SDS011;3282;48.358;10.958;2022-08-02T03:56:28;5.57;;;3.30;;
6497;SDS011;3282;48.358;10.958;2022-08-02T03:59:08;6.13;;;2.90;;
6497;SDS011;3282;48.358;10.958;2022-08-02T04:01:36;6.47;;;2.70;;
6497;SDS011;3282;48.358;10.958;2022-08-02T04:04:03;6.18;;;3.17;;
6497;SDS011;3282;48.358;10.958;2022-08-02T04:06:31;7.85;;;3.55;;
6497;SDS011;3282;48.358;10.958;2022-08-02T04:08:58;4.72;;;3.25;;
6497;SDS011;3282;48.358;10.958;2022-08-02T04:11:24;6.30;;;3.20;;
6497;SDS011;3282;48.358;10.958;2022-08-02T04:13:58;4.70;;;3.03;;
6497;SDS011;3282;48.358;10.958;2022-08-02T04:16:49;4.32;;;2.85;;
6497;SDS011;3282;48.358;10.958;2022-08-02T04:19:19;4.78;;;2.90;;
6497;SDS011;3282;48.358;10.958;2022-08-02T04:21:51;4.88;;;3.30;;
6497;SDS011;3282;48.358;10.958;2022-08-02T04:24:24;5.80;;;2.97;;
6497;SDS011;3282;48.358;10.958;2022-08-02T04:26:53;5.67;;;3.93;;
6497;SDS011;3282;48.358;10.958;2022-08-02T04:29:32;5.18;;;3.10;;
6497;SDS011;3282;48.358;10.958;2022-08-02T04:32:00;6.28;;;3.20;;
6497;SDS011;3282;48.358;10.958;2022-08-02T04:34:28;4.88;;;3.03;;
6497;SDS011;3282;48.358;10.958;2022-08-02T04:36:55;5.57;;;3.30;;
6497;SDS011;3282;48.358;10.958;2022-08-02T04:39:22;6.78;;;3.38;;
6497;SDS011;3282;48.358;10.958;2022-08-02T04:41:49;5.72;;;3.65;;
6497;SDS011;3282;48.358;10.958;2022-08-02T04:44:22;9.10;;;3.75;;
6497;SDS011;3282;48.358;10.958;2022-08-02T04:46:48;6.10;;;3.72;;
6497;SDS011;3282;48.358;10.958;2022-08-02T04:49:16;13.40;;;3.50;;
6497;SDS011;3282;48.358;10.958;2022-08-02T04:51:42;7.72;;;3.50;;
6497;SDS011;3282;48.358;10.958;2022-08-02T04:54:09;6.10;;;3.65;;
6497;SDS011;3282;48.358;10.958;2022-08-02T04:56:37;4.97;;;2.80;;
6497;SDS011;3282;48.358;10.958;2022-08-02T04:59:04;5.57;;;3.30;;
6497;SDS011;3282;48.358;10.958;2022-08-02T05:01:32;6.88;;;3.20;;
6497;SDS011;3282;48.358;10.958;2022-08-02T05:04:00;6.20;;;3.30;;
6497;SDS011;3282;48.358;10.958;2022-08-02T05:06:26;8.07;;;4.20;;
6497;SDS011;3282;48.358;10.958;2022-08-02T05:08:53;10.52;;;3.80;;
6497;SDS011;3282;48.358;10.958;2022-08-02T05:11:23;6.55;;;3.60;;
6497;SDS011;3282;48.358;10.958;2022-08-02T05:14:02;6.80;;;3.58;;
6497;SDS011;3282;48.358;10.958;2022-08-02T05:16:30;6.80;;;3.55;;
6497;SDS011;3282;48.358;10.958;2022-08-02T05:18:58;5.18;;;3.33;;
6497;SDS011;3282;48.358;10.958;2022-08-02T05:21:26;7.13;;;3.08;;
6497;SDS011;3282;48.358;10.958;2022-08-02T05:23:53;7.50;;;3.30;;
6497;SDS011;3282;48.358;10.958;2022-08-02T05:26:19;6.57;;;2.90;;
6497;SDS011;3282;48.358;10.958;2022-08-02T05:28:46;5.03;;;2.70;;
6497;SDS011;3282;48.358;10.958;2022-08-02T05:31:12;5.65;;;2.70;;
6497;SDS011;3282;48.358;10.958;2022-08-02T05:33:39;3.83;;;2.63;;
6497;SDS011;3282;48.358;10.958;2022-08-02T05:36:06;4.75;;;2.90;;
6497;SDS011;3282;48.358;10.958;2022-08-02T05:38:34;4.95;;;2.60;;
6497;SDS011;3282;48.358;10.958;2022-08-02T05:41:03;4.40;;;2.55;;
6497;SDS011;3282;48.358;10.958;2022-08-02T05:43:30;4.85;;;2.35;;
6497;SDS011;3282;48.358;10.958;2022-08-02T05:45:57;4.15;;;2.30;;
6497;SDS011;3282;48.358;10.958;2022-08-02T05:48:23;4.68;;;2.30;;
6497;SDS011;3282;48.358;10.958;2022-08-02T05:51:04;5.80;;;2.28;;
6497;SDS011;3282;48.358;10.958;2022-08-02T05:53:40;5.18;;;2.40;;
6497;SDS011;3282;48.358;10.958;2022-08-02T05:59:02;4.10;;;2.50;;
6497;SDS011;3282;48.358;10.958;2022-08-02T06:01:48;4.32;;;2.47;;
6497;SDS011;3282;48.358;10.958;2022-08-02T06:04:25;8.10;;;2.45;;
6497;SDS011;3282;48.358;10.958;2022-08-02T06:06:55;5.63;;;2.50;;
6497;SDS011;3282;48.358;10.958;2022-08-02T06:09:28;4.55;;;2.33;;
6497;SDS011;3282;48.358;10.958;2022-08-02T06:11:57;6.45;;;2.70;;
6497;SDS011;3282;48.358;10.958;2022-08-02T06:14:31;4.10;;;2.50;;
6497;SDS011;3282;48.358;10.958;2022-08-02T06:17:04;3.55;;;2.45;;
6497;SDS011;3282;48.358;10.958;2022-08-02T06:19:31;4.40;;;2.30;;
6497;SDS011;3282;48.358;10.958;2022-08-02T06:22:16;3.83;;;2.65;;
6497;SDS011;3282;48.358;10.958;2022-08-02T06:25:03;4.85;;;2.50;;
6497;SDS011;3282;48.358;10.958;2022-08-02T06:27:31;4.32;;;2.30;;
6497;SDS011;3282;48.358;10.958;2022-08-02T06:29:59;5.70;;;2.80;;
6497;SDS011;3282;48.358;10.958;2022-08-02T06:32:27;4.28;;;2.60;;
6497;SDS011;3282;48.358;10.958;2022-08-02T06:34:54;4.97;;;2.50;;
6497;SDS011;3282;48.358;10.958;2022-08-02T06:40:06;3.50;;;2.50;;
6497;SDS011;3282;48.358;10.958;2022-08-02T06:42:47;6.90;;;2.97;;
6497;SDS011;3282;48.358;10.958;2022-08-02T06:45:17;6.00;;;2.70;;
6497;SDS011;3282;48.358;10.958;2022-08-02T06:47:43;6.20;;;2.90;;
6497;SDS011;3282;48.358;10.958;2022-08-02T06:50:10;5.13;;;2.60;;
6497;SDS011;3282;48.358;10.958;2022-08-02T06:52:37;4.93;;;2.47;;
6497;SDS011;3282;48.358;10.958;2022-08-02T06:55:04;6.78;;;2.80;;
6497;SDS011;3282;48.358;10.958;2022-08-02T06:57:31;4.43;;;2.50;;
6497;SDS011;3282;48.358;10.958;2022-08-02T06:59:58;5.50;;;2.63;;
6497;SDS011;3282;48.358;10.958;2022-08-02T07:02:30;5.85;;;2.60;;
6497;SDS011;3282;48.358;10.958;2022-08-02T07:04:57;3.35;;;2.35;;
6497;SDS011;3282;48.358;10.958;2022-08-02T07:07:24;5.18;;;2.50;;
6497;SDS011;3282;48.358;10.958;2022-08-02T07:09:52;3.72;;;2.60;;
6497;SDS011;3282;48.358;10.958;2022-08-02T07:12:27;3.78;;;2.40;;
6497;SDS011;3282;48.358;10.958;2022-08-02T07:14:56;5.70;;;2.25;;
6497;SDS011;3282;48.358;10.958;2022-08-02T07:17:24;4.82;;;2.60;;
6497;SDS011;3282;48.358;10.958;2022-08-02T07:19:51;4.05;;;2.30;;
6497;SDS011;3282;48.358;10.958;2022-08-02T07:22:17;5.18;;;2.53;;
6497;SDS011;3282;48.358;10.958;2022-08-02T07:24:48;3.95;;;2.40;;
6497;SDS011;3282;48.358;10.958;2022-08-02T07:27:15;5.85;;;2.40;;
6497;SDS011;3282;48.358;10.958;2022-08-02T07:29:42;5.82;;;2.55;;
6497;SDS011;3282;48.358;10.958;2022-08-02T07:32:19;4.35;;;2.42;;
6497;SDS011;3282;48.358;10.958;2022-08-02T07:34:48;5.13;;;2.70;;
6497;SDS011;3282;48.358;10.958;2022-08-02T07:37:19;4.10;;;2.60;;
6497;SDS011;3282;48.358;10.958;2022-08-02T07:40:07;3.55;;;2.20;;
6497;SDS011;3282;48.358;10.958;2022-08-02T07:42:40;4.82;;;2.17;;
6497;SDS011;3282;48.358;10.958;2022-08-02T07:45:08;6.15;;;2.50;;
6497;SDS011;3282;48.358;10.958;2022-08-02T07:47:36;3.83;;;2.40;;
6497;SDS011;3282;48.358;10.958;2022-08-02T07:50:04;4.72;;;2.40;;
6497;SDS011;3282;48.358;10.958;2022-08-02T07:52:31;4.25;;;2.42;;
6497;SDS011;3282;48.358;10.958;2022-08-02T07:54:58;4.25;;;2.20;;
6497;SDS011;3282;48.358;10.958;2022-08-02T07:57:25;5.88;;;2.33;;
6497;SDS011;3282;48.358;10.958;2022-08-02T07:59:51;4.03;;;2.40;;
6497;SDS011;3282;48.358;10.958;2022-08-02T08:02:18;3.55;;;2.05;;
6497;SDS011;3282;48.358;10.958;2022-08-02T08:04:45;3.03;;;2.10;;
6497;SDS011;3282;48.358;10.958;2022-08-02T08:07:11;4.63;;;2.20;;
6497;SDS011;3282;48.358;10.958;2022-08-02T08:09:38;3.35;;;1.90;;
6497;SDS011;3282;48.358;10.958;2022-08-02T08:12:07;7.45;;;1.85;;
6497;SDS011;3282;48.358;10.958;2022-08-02T08:14:35;3.38;;;1.70;;
6497;SDS011;3282;48.358;10.958;2022-08-02T08:17:03;4.25;;;1.90;;
6497;SDS011;3282;48.358;10.958;2022-08-02T08:19:31;2.53;;;1.70;;
6497;SDS011;3282;48.358;10.958;2022-08-02T08:22:17;4.53;;;1.90;;
6497;SDS011;3282;48.358;10.958;2022-08-02T08:24:47;3.58;;;1.80;;
6497;SDS011;3282;48.358;10.958;2022-08-02T08:27:14;2.30;;;1.60;;
6497;SDS011;3282;48.358;10.958;2022-08-02T08:29:42;3.33;;;1.70;;
6497;SDS011;3282;48.358;10.958;2022-08-02T08:32:09;2.17;;;1.55;;
6497;SDS011;3282;48.358;10.958;2022-08-02T08:34:46;2.20;;;1.50;;
6497;SDS011;3282;48.358;10.958;2022-08-02T08:37:14;3.10;;;1.70;;
6497;SDS011;3282;48.358;10.958;2022-08-02T08:39:44;3.88;;;1.70;;
6497;SDS011;3282;48.358;10.958;2022-08-02T08:42:27;3.75;;;1.70;;
6497;SDS011;3282;48.358;10.958;2022-08-02T08:44:55;2.25;;;1.60;;
6497;SDS011;3282;48.358;10.958;2022-08-02T08:47:35;3.80;;;1.70;;
6497;SDS011;3282;48.358;10.958;2022-08-02T08:50:05;2.40;;;1.60;;
6497;SDS011;3282;48.358;10.958;2022-08-02T08:52:41;3.78;;;1.60;;
6497;SDS011;3282;48.358;10.958;2022-08-02T08:55:13;2.65;;;1.70;;
6497;SDS011;3282;48.358;10.958;2022-08-02T08:57:42;3.33;;;1.70;;
6497;SDS011;3282;48.358;10.958;2022-08-02T09:00:09;3.58;;;1.77;;
6497;SDS011;3282;48.358;10.958;2022-08-02T09:02:42;2.20;;;1.60;;
6497;SDS011;3282;48.358;10.958;2022-08-02T09:05:09;3.00;;;1.60;;
6497;SDS011;3282;48.358;10.958;2022-08-02T09:07:37;3.70;;;1.70;;
6497;SDS011;3282;48.358;10.958;2022-08-02T09:15:52;3.75;;;1.85;;
6497;SDS011;3282;48.358;10.958;2022-08-02T09:18:30;3.55;;;1.65;;
6497;SDS011;3282;48.358;10.958;2022-08-02T09:21:01;3.88;;;1.88;;
6497;SDS011;3282;48.358;10.958;2022-08-02T09:23:38;3.17;;;1.70;;
6497;SDS011;3282;48.358;10.958;2022-08-02T09:26:07;5.50;;;2.00;;
6497;SDS011;3282;48.358;10.958;2022-08-02T09:28:36;2.70;;;1.70;;
6497;SDS011;3282;48.358;10.958;2022-08-02T09:31:05;3.17;;;2.00;;
6497;SDS011;3282;48.358;10.958;2022-08-02T09:33:34;3.63;;;1.90;;
6497;SDS011;3282;48.358;10.958;2022-08-02T09:36:05;2.72;;;1.92;;
6497;SDS011;3282;48.358;10.958;2022-08-02T09:38:34;3.30;;;1.88;;
6497;SDS011;3282;48.358;10.958;2022-08-02T09:41:02;3.83;;;1.88;;
6497;SDS011;3282;48.358;10.958;2022-08-02T09:43:41;3.00;;;1.73;;
6497;SDS011;3282;48.358;10.958;2022-08-02T09:46:29;3.05;;;1.88;;
6497;SDS011;3282;48.358;10.958;2022-08-02T09:49:01;2.75;;;1.95;;
6497;SDS011;3282;48.358;10.958;2022-08-02T09:51:51;3.30;;;1.70;;
6497;SDS011;3282;48.358;10.958;2022-08-02T09:54:20;3.88;;;1.83;;
6497;SDS011;3282;48.358;10.958;2022-08-02T09:56:50;3.00;;;1.90;;
6497;SDS011;3282;48.358;10.958;2022-08-02T09:59:22;2.70;;;1.65;;
6497;SDS011;3282;48.358;10.958;2022-08-02T10:01:50;2.65;;;1.70;;
6497;SDS011;3282;48.358;10.958;2022-08-02T10:04:38;2.70;;;1.80;;
6497;SDS011;3282;48.358;10.958;2022-08-02T10:07:19;2.75;;;1.65;;
6497;SDS011;3282;48.358;10.958;2022-08-02T10:09:48;2.58;;;1.80;;
6497;SDS011;3282;48.358;10.958;2022-08-02T10:12:16;2.92;;;1.70;;
6497;SDS011;3282;48.358;10.958;2022-08-02T10:14:43;4.13;;;2.00;;
6497;SDS011;3282;48.358;10.958;2022-08-02T10:17:10;3.13;;;1.75;;
6497;SDS011;3282;48.358;10.958;2022-08-02T10:19:37;3.92;;;1.80;;
6497;SDS011;3282;48.358;10.958;2022-08-02T10:22:24;4.22;;;2.00;;
6497;SDS011;3282;48.358;10.958;2022-08-02T10:24:52;4.95;;;2.00;;
6497;SDS011;3282;48.358;10.958;2022-08-02T10:27:19;4.03;;;2.00;;
6497;SDS011;3282;48.358;10.958;2022-08-02T10:29:47;5.57;;;1.98;;
6497;SDS011;3282;48.358;10.958;2022-08-02T10:32:21;3.10;;;1.70;;
6497;SDS011;3282;48.358;10.958;2022-08-02T10:37:54;4.07;;;1.90;;
6497;SDS011;3282;48.358;10.958;2022-08-02T10:40:23;3.30;;;1.80;;
6497;SDS011;3282;48.358;10.958;2022-08-02T10:42:52;3.50;;;1.90;;
6497;SDS011;3282;48.358;10.958;2022-08-02T10:45:26;4.03;;;2.10;;
6497;SDS011;3282;48.358;10.958;2022-08-02T10:48:08;3.97;;;2.00;;
6497;SDS011;3282;48.358;10.958;2022-08-02T10:53:20;3.75;;;1.60;;
6497;SDS011;3282;48.358;10.958;2022-08-02T10:55:47;3.20;;;1.80;;
6497;SDS011;3282;48.358;10.958;2022-08-02T10:58:17;2.55;;;1.60;;
6497;SDS011;3282;48.358;10.958;2022-08-02T11:00:44;3.58;;;1.60;;
6497;SDS011;3282;48.358;10.958;2022-08-02T11:06:27;5.32;;;1.70;;
6497;SDS011;3282;48.358;10.958;2022-08-02T11:09:24;3.60;;;1.90;;
6497;SDS011;3282;48.358;10.958;2022-08-02T11:12:01;2.60;;;1.60;;
6497;SDS011;3282;48.358;10.958;2022-08-02T11:14:37;2.65;;;1.60;;
6497;SDS011;3282;48.358;10.958;2022-08-02T11:17:07;2.65;;;1.55;;
6497;SDS011;3282;48.358;10.958;2022-08-02T11:20:22;2.53;;;1.52;;
6497;SDS011;3282;48.358;10.958;2022-08-02T11:22:41;2.45;;;1.60;;
6497;SDS011;3282;48.358;10.958;2022-08-02T11:27:48;3.05;;;1.65;;
6497;SDS011;3282;48.358;10.958;2022-08-02T11:30:16;4.35;;;1.63;;
6497;SDS011;3282;48.358;10.958;2022-08-02T11:32:42;2.90;;;1.50;;
6497;SDS011;3282;48.358;10.958;2022-08-02T11:35:09;3.80;;;1.70;;
6497;SDS011;3282;48.358;10.958;2022-08-02T11:37:38;2.72;;;1.60;;
6497;SDS011;3282;48.358;10.958;2022-08-02T11:40:07;3.28;;;1.70;;
6497;SDS011;3282;48.358;10.958;2022-08-02T11:42:45;3.78;;;1.60;;
6497;SDS011;3282;48.358;10.958;2022-08-02T11:45:15;10.93;;;1.48;;
6497;SDS011;3282;48.358;10.958;2022-08-02T11:47:48;2.13;;;1.40;;
6497;SDS011;3282;48.358;10.958;2022-08-02T11:50:16;3.30;;;1.70;;
6497;SDS011;3282;48.358;10.958;2022-08-02T11:52:55;3.03;;;1.60;;
6497;SDS011;3282;48.358;10.958;2022-08-02T11:55:28;3.65;;;1.70;;
6497;SDS011;3282;48.358;10.958;2022-08-02T11:58:01;2.83;;;1.60;;
6497;SDS011;3282;48.358;10.958;2022-08-02T12:00:31;4.55;;;1.75;;
6497;SDS011;3282;48.358;10.958;2022-08-02T12:02:57;2.70;;;1.65;;
6497;SDS011;3282;48.358;10.958;2022-08-02T12:05:24;2.95;;;1.75;;
6497;SDS011;3282;48.358;10.958;2022-08-02T12:08:14;2.70;;;1.70;;
6497;SDS011;3282;48.358;10.958;2022-08-02T12:10:47;3.38;;;1.55;;
6497;SDS011;3282;48.358;10.958;2022-08-02T12:13:14;3.72;;;1.60;;
6497;SDS011;3282;48.358;10.958;2022-08-02T12:15:42;4.22;;;1.67;;
6497;SDS011;3282;48.358;10.958;2022-08-02T12:18:11;3.58;;;1.55;;
6497;SDS011;3282;48.358;10.958;2022-08-02T12:21:00;2.92;;;1.58;;
6497;SDS011;3282;48.358;10.958;2022-08-02T12:23:28;4.25;;;1.63;;
6497;SDS011;3282;48.358;10.958;2022-08-02T12:25:58;3.15;;;1.52;;
6497;SDS011;3282;48.358;10.958;2022-08-02T12:28:41;4.10;;;1.60;;
6497;SDS011;3282;48.358;10.958;2022-08-02T12:31:09;2.53;;;1.60;;
6497;SDS011;3282;48.358;10.958;2022-08-02T12:33:49;3.88;;;1.60;;
6497;SDS011;3282;48.358;10.958;2022-08-02T12:36:18;3.25;;;1.60;;
6497;SDS011;3282;48.358;10.958;2022-08-02T12:38:51;3.15;;;1.55;;
6497;SDS011;3282;48.358;10.958;2022-08-02T12:41:23;2.55;;;1.50;;
6497;SDS011;3282;48.358;10.958;2022-08-02T12:43:57;2.85;;;1.65;;
6497;SDS011;3282;48.358;10.958;2022-08-02T12:46:25;4.65;;;1.67;;
6497;SDS011;3282;48.358;10.958;2022-08-02T12:48:52;2.20;;;1.40;;
6497;SDS011;3282;48.358;10.958;2022-08-02T12:51:39;2.45;;;1.50;;
6497;SDS011;3282;48.358;10.958;2022-08-02T12:56:57;3.78;;;1.50;;
6497;SDS011;3282;48.358;10.958;2022-08-02T12:59:36;2.45;;;1.40;;
6497;SDS011;3282;48.358;10.958;2022-08-02T13:02:05;2.63;;;1.50;;
6497;SDS011;3282;48.358;10.958;2022-08-02T13:04:38;4.50;;;1.50;;
6497;SDS011;3282;48.358;10.958;2022-08-02T13:07:06;2.83;;;1.50;;
6497;SDS011;3282;48.358;10.958;2022-08-02T13:09:37;2.88;;;1.33;;
6497;SDS011;3282;48.358;10.958;2022-08-02T13:12:05;4.68;;;1.40;;
6497;SDS011;3282;48.358;10.958;2022-08-02T13:14:33;2.20;;;1.30;;
6497;SDS011;3282;48.358;10.958;2022-08-02T13:17:08;1.95;;;1.23;;
6497;SDS011;3282;48.358;10.958;2022-08-02T13:19:35;2.60;;;1.30;;
6497;SDS011;3282;48.358;10.958;2022-08-02T13:22:03;2.30;;;1.30;;
6497;SDS011;3282;48.358;10.958;2022-08-02T13:24:31;2.40;;;1.42;;
6497;SDS011;3282;48.358;10.958;2022-08-02T13:27:18;2.53;;;1.40;;
6497;SDS011;3282;48.358;10.958;2022-08-02T13:29:46;2.58;;;1.40;;
6497;SDS011;3282;48.358;10.958;2022-08-02T13:32:14;3.03;;;1.58;;
6497;SDS011;3282;48.358;10.958;2022-08-02T13:34:41;3.90;;;1.40;;
6497;SDS011;3282;48.358;10.958;2022-08-02T13:37:08;3.50;;;1.50;;
6497;SDS011;3282;48.358;10.958;2022-08-02T13:39:35;2.40;;;1.30;;
6497;SDS011;3282;48.358;10.958;2022-08-02T13:42:02;3.25;;;1.40;;
6497;SDS011;3282;48.358;10.958;2022-08-02T13:44:31;2.08;;;1.40;;
6497;SDS011;3282;48.358;10.958;2022-08-02T13:46:58;3.17;;;1.40;;
6497;SDS011;3282;48.358;10.958;2022-08-02T13:49:26;3.20;;;1.30;;
6497;SDS011;3282;48.358;10.958;2022-08-02T13:52:12;9.45;;;1.60;;
6497;SDS011;3282;48.358;10.958;2022-08-02T13:54:39;2.20;;;1.40;;
6497;SDS011;3282;48.358;10.958;2022-08-02T13:57:06;2.10;;;1.30;;
6497;SDS011;3282;48.358;10.958;2022-08-02T13:59:33;2.72;;;1.50;;
6497;SDS011;3282;48.358;10.958;2022-08-02T14:02:20;4.43;;;1.50;;
6497;SDS011;3282;48.358;10.958;2022-08-02T14:04:46;7.57;;;1.60;;
6497;SDS011;3282;48.358;10.958;2022-08-02T14:07:13;2.38;;;1.40;;
6497;SDS011;3282;48.358;10.958;2022-08-02T14:09:41;2.15;;;1.42;;
6497;SDS011;3282;48.358;10.958;2022-08-02T14:12:09;2.50;;;1.30;;
6497;SDS011;3282;48.358;10.958;2022-08-02T14:14:36;3.17;;;1.48;;
6497;SDS011;3282;48.358;10.958;2022-08-02T14:17:03;1.98;;;1.35;;
6497;SDS011;3282;48.358;10.958;2022-08-02T14:19:30;2.22;;;1.20;;
6497;SDS011;3282;48.358;10.958;2022-08-02T14:21:56;2.67;;;1.58;;
6497;SDS011;3282;48.358;10.958;2022-08-02T14:24:43;2.15;;;1.30;;
6497;SDS011;3282;48.358;10.958;2022-08-02T14:27:09;2.08;;;1.27;;
6497;SDS011;3282;48.358;10.958;2022-08-02T14:29:36;2.63;;;1.45;;
6497;SDS011;3282;48.358;10.958;2022-08-02T14:32:03;1.88;;;1.20;;
6497;SDS011;3282;48.358;10.958;2022-08-02T14:34:30;2.70;;;1.60;;
6497;SDS011;3282;48.358;10.958;2022-08-02T14:36:56;2.85;;;1.30;;
6497;SDS011;3282;48.358;10.958;2022-08-02T14:39:23;2.67;;;1.40;;
6497;SDS011;3282;48.358;10.958;2022-08-02T14:41:49;4.90;;;1.42;;
6497;SDS011;3282;48.358;10.958;2022-08-02T14:44:26;2.42;;;1.33;;
6497;SDS011;3282;48.358;10.958;2022-08-02T14:46:53;3.63;;;1.40;;
6497;SDS011;3282;48.358;10.958;2022-08-02T14:49:20;2.20;;;1.45;;
6497;SDS011;3282;48.358;10.958;2022-08-02T14:51:54;5.68;;;1.38;;
6497;SDS011;3282;48.358;10.958;2022-08-02T14:54:22;3.53;;;1.50;;
6497;SDS011;3282;48.358;10.958;2022-08-02T14:56:57;2.30;;;1.25;;
6497;SDS011;3282;48.358;10.958;2022-08-02T14:59:24;3.40;;;1.40;;
6497;SDS011;3282;48.358;10.958;2022-08-02T15:01:52;2.88;;;1.30;;
6497;SDS011;3282;48.358;10.958;2022-08-02T15:04:19;1.42;;;1.10;;
6497;SDS011;3282;48.358;10.958;2022-08-02T15:06:46;2.25;;;1.40;;
6497;SDS011;3282;48.358;10.958;2022-08-02T15:09:12;3.30;;;1.30;;
6497;SDS011;3282;48.358;10.958;2022-08-02T15:11:39;3.28;;;1.25;;
6497;SDS011;3282;48.358;10.958;2022-08-02T15:14:17;2.08;;;1.27;;
6497;SDS011;3282;48.358;10.958;2022-08-02T15:16:51;1.88;;;1.30;;
6497;SDS011;3282;48.358;10.958;2022-08-02T15:19:24;1.67;;;1.10;;
6497;SDS011;3282;48.358;10.958;2022-08-02T15:22:11;2.22;;;1.30;;
6497;SDS011;3282;48.358;10.958;2022-08-02T15:24:44;2.38;;;1.27;;
6497;SDS011;3282;48.358;10.958;2022-08-02T15:27:11;2.85;;;1.20;;
6497;SDS011;3282;48.358;10.958;2022-08-02T15:29:40;2.38;;;1.30;;
6497;SDS011;3282;48.358;10.958;2022-08-02T15:32:07;2.25;;;1.25;;
6497;SDS011;3282;48.358;10.958;2022-08-02T15:34:33;2.63;;;1.20;;
6497;SDS011;3282;48.358;10.958;2022-08-02T15:37:00;2.70;;;1.25;;
6497;SDS011;3282;48.358;10.958;2022-08-02T15:39:28;1.95;;;1.30;;
6497;SDS011;3282;48.358;10.958;2022-08-02T15:41:55;2.65;;;1.20;;
6497;SDS011;3282;48.358;10.958;2022-08-02T15:44:22;8.70;;;1.27;;
6497;SDS011;3282;48.358;10.958;2022-08-02T15:46:50;2.33;;;1.30;;
6497;SDS011;3282;48.358;10.958;2022-08-02T15:49:17;2.10;;;1.30;;
6497;SDS011;3282;48.358;10.958;2022-08-02T15:51:45;2.17;;;1.30;;